Time;durP1;ratioP1;P1;durP2;ratioP2;P2;SDS_P1;SDS_P2;PMS_P1;PMS_P2;Temp;Humidity;BMP_temperature;BMP_pressure;BME280_temperature;BME280_humidity;BME280_pressure;Samples;Min_cycle;Max_cycle;Signal;HPM_P1;HPM_P2
2022/06/16 00:01:50;;;;;;;13.05;4.22;;;;;;;;;;5065968;28;20020;-63
2022/06/16 00:04:16;;;;;;;7.38;3.55;;;;;;;;;;5054765;28;20037;-63
2022/06/16 00:06:42;;;;;;;6.28;3.85;;;;;;;;;;5070808;28;20025;-63
2022/06/16 00:09:08;;;;;;;9.43;4.07;;;;;;;;;;5063647;28;20049;-63
2022/06/16 00:11:34;;;;;;;7.18;3.80;;;;;;;;;;5063116;28;20036;-63
2022/06/16 00:14:01;;;;;;;6.65;4.18;;;;;;;;;;5057114;28;20071;-63
2022/06/16 00:16:27;;;;;;;8.65;4.28;;;;;;;;;;5067971;28;20024;-63
2022/06/16 00:18:53;;;;;;;8.27;4.00;;;;;;;;;;5052060;28;20025;-63
2022/06/16 00:21:19;;;;;;;6.65;3.80;;;;;;;;;;5060897;28;20033;-63
2022/06/16 00:23:45;;;;;;;6.15;3.72;;;;;;;;;;5059347;28;20032;-63
2022/06/16 00:26:13;;;;;;;7.82;3.90;;;;;;;;;;5068057;28;20044;-63
2022/06/16 00:28:40;;;;;;;6.88;4.35;;;;;;;;;;5055276;28;20027;-63
2022/06/16 00:31:07;;;;;;;5.78;3.90;;;;;;;;;;5063483;28;20414;-63
2022/06/16 00:33:33;;;;;;;9.02;4.00;;;;;;;;;;5062124;28;20067;-63
2022/06/16 00:36:00;;;;;;;9.48;4.05;;;;;;;;;;5056200;28;20095;-63
2022/06/16 00:38:26;;;;;;;7.13;4.32;;;;;;;;;;5068010;28;20036;-63
2022/06/16 00:40:52;;;;;;;6.72;4.05;;;;;;;;;;5054915;28;20506;-63
2022/06/16 00:43:18;;;;;;;6.93;4.03;;;;;;;;;;5061917;28;20044;-63
2022/06/16 00:46:00;;;;;;;8.52;3.55;;;;;;;;;;5063734;28;20021;-63
2022/06/16 00:48:29;;;;;;;8.77;3.85;;;;;;;;;;5053200;28;20033;-63
2022/06/16 00:50:57;;;;;;;8.40;4.53;;;;;;;;;;5065323;28;20025;-63
2022/06/16 00:53:25;;;;;;;5.40;3.80;;;;;;;;;;5060528;28;20033;-63
2022/06/16 00:55:51;;;;;;;7.32;3.90;;;;;;;;;;5057405;28;20028;-63
2022/06/16 00:58:19;;;;;;;8.00;3.85;;;;;;;;;;5066417;28;20053;-63
2022/06/16 01:00:45;;;;;;;10.80;4.03;;;;;;;;;;5067858;28;20111;-63
2022/06/16 01:03:12;;;;;;;10.70;4.22;;;;;;;;;;5057303;28;20461;-63
2022/06/16 01:05:39;;;;;;;7.43;3.60;;;;;;;;;;5066389;28;20027;-63
2022/06/16 01:08:06;;;;;;;8.70;4.25;;;;;;;;;;5069541;28;20025;-63
2022/06/16 01:10:40;;;;;;;9.95;4.20;;;;;;;;;;5067655;28;20086;-63
2022/06/16 01:16:00;;;;;;;8.02;3.70;;;;;;;;;;5069480;28;20401;-63
2022/06/16 01:18:32;;;;;;;7.25;3.33;;;;;;;;;;5054352;28;20048;-63
2022/06/16 01:21:03;;;;;;;4.35;3.47;;;;;;;;;;5067457;28;20033;-63
2022/06/16 01:23:30;;;;;;;8.20;3.47;;;;;;;;;;5064026;28;20542;-63
2022/06/16 01:26:15;;;;;;;7.57;3.72;;;;;;;;;;5062287;28;20071;-63
2022/06/16 01:28:51;;;;;;;8.43;3.38;;;;;;;;;;5069207;28;20119;-63
2022/06/16 01:31:43;;;;;;;7.25;3.55;;;;;;;;;;5060552;28;20060;-63
2022/06/16 01:34:23;;;;;;;8.52;3.95;;;;;;;;;;5058708;28;20037;-63
2022/06/16 01:36:52;;;;;;;5.15;3.65;;;;;;;;;;5058195;28;20020;-63
2022/06/16 01:39:27;;;;;;;9.70;3.63;;;;;;;;;;5067467;28;20025;-62
2022/06/16 01:41:59;;;;;;;6.50;3.38;;;;;;;;;;5064713;28;20036;-63
2022/06/16 01:44:30;;;;;;;4.43;3.50;;;;;;;;;;5072080;28;20028;-63
2022/06/16 01:47:07;;;;;;;6.60;3.22;;;;;;;;;;5072539;28;20047;-63
2022/06/16 01:49:36;;;;;;;7.40;3.53;;;;;;;;;;5071521;28;20025;-63
2022/06/16 01:52:05;;;;;;;7.88;3.90;;;;;;;;;;5070083;28;20397;-63
2022/06/16 01:54:34;;;;;;;7.97;3.97;;;;;;;;;;5061737;28;20033;-63
2022/06/16 01:57:08;;;;;;;7.97;3.92;;;;;;;;;;5060465;28;20056;-63
2022/06/16 01:59:40;;;;;;;8.35;3.92;;;;;;;;;;5069316;28;20070;-63
2022/06/16 02:02:08;;;;;;;8.00;4.10;;;;;;;;;;5058364;28;20037;-63
2022/06/16 02:04:44;;;;;;;7.78;4.13;;;;;;;;;;5064097;28;20496;-63
2022/06/16 02:07:17;;;;;;;7.63;3.95;;;;;;;;;;5070585;28;20032;-63
2022/06/16 02:09:46;;;;;;;4.30;3.90;;;;;;;;;;5056118;28;20028;-63
2022/06/16 02:15:11;;;;;;;5.20;3.70;;;;;;;;;;5079036;28;20033;-63
2022/06/16 02:17:55;;;;;;;6.10;3.63;;;;;;;;;;5069173;28;20503;-63
2022/06/16 02:20:21;;;;;;;4.95;3.53;;;;;;;;;;5059425;28;20016;-63
2022/06/16 02:22:47;;;;;;;8.23;4.10;;;;;;;;;;5057400;28;20021;-63
2022/06/16 02:25:14;;;;;;;4.78;3.70;;;;;;;;;;5066452;28;20476;-63
2022/06/16 02:27:43;;;;;;;5.70;3.70;;;;;;;;;;5055581;28;20111;-63
2022/06/16 02:30:09;;;;;;;6.18;3.58;;;;;;;;;;5067681;28;20496;-63
2022/06/16 02:32:40;;;;;;;9.45;3.90;;;;;;;;;;5059937;28;20495;-63
2022/06/16 02:35:24;;;;;;;5.85;3.55;;;;;;;;;;5060007;28;20484;-63
2022/06/16 02:38:11;;;;;;;10.75;5.78;;;;;;;;;;5069114;28;20025;-63
2022/06/16 02:40:49;;;;;;;5.68;3.67;;;;;;;;;;5060858;28;20024;-63
2022/06/16 02:43:15;;;;;;;6.93;4.15;;;;;;;;;;5067000;28;20029;-63
2022/06/16 02:45:43;;;;;;;8.38;3.72;;;;;;;;;;5056526;28;20025;-63
2022/06/16 02:48:12;;;;;;;7.30;3.90;;;;;;;;;;5067967;28;20078;-63
2022/06/16 02:50:38;;;;;;;7.53;3.97;;;;;;;;;;5059601;28;20013;-63
2022/06/16 02:53:11;;;;;;;7.25;4.25;;;;;;;;;;5061602;28;20508;-63
2022/06/16 02:55:40;;;;;;;9.02;5.68;;;;;;;;;;5068469;28;20035;-63
2022/06/16 02:58:10;;;;;;;10.77;5.30;;;;;;;;;;5051802;28;20041;-63
2022/06/16 03:00:43;;;;;;;7.43;4.38;;;;;;;;;;5060352;28;20127;-62
2022/06/16 03:03:21;;;;;;;11.65;5.05;;;;;;;;;;5059730;28;20039;-63
2022/06/16 03:05:54;;;;;;;7.50;4.95;;;;;;;;;;5068927;28;20109;-63
2022/06/16 03:08:22;;;;;;;8.82;4.90;;;;;;;;;;5066602;28;20179;-63
2022/06/16 03:10:51;;;;;;;6.55;4.75;;;;;;;;;;5060905;28;20028;-63
2022/06/16 03:13:18;;;;;;;8.30;4.47;;;;;;;;;;5066763;28;20054;-63
2022/06/16 03:15:45;;;;;;;8.65;4.68;;;;;;;;;;5054781;28;20028;-63
2022/06/16 03:18:15;;;;;;;10.82;4.90;;;;;;;;;;5067258;28;20040;-63
2022/06/16 03:20:43;;;;;;;8.15;4.43;;;;;;;;;;5059512;28;20435;-63
2022/06/16 03:23:09;;;;;;;7.90;4.20;;;;;;;;;;5059756;28;20033;-63
2022/06/16 03:25:37;;;;;;;8.88;4.85;;;;;;;;;;5066817;28;20400;-63
2022/06/16 03:28:05;;;;;;;6.55;4.38;;;;;;;;;;5054153;28;20082;-63
2022/06/16 03:30:33;;;;;;;8.02;4.32;;;;;;;;;;5064988;28;20056;-63
2022/06/16 03:33:03;;;;;;;8.00;4.75;;;;;;;;;;5061696;28;20020;-63
2022/06/16 03:35:30;;;;;;;9.00;4.72;;;;;;;;;;5057088;28;20037;-63
2022/06/16 03:38:00;;;;;;;7.30;4.32;;;;;;;;;;5061362;28;20029;-63
2022/06/16 03:40:27;;;;;;;5.97;4.38;;;;;;;;;;5059864;28;20028;-63
2022/06/16 03:42:53;;;;;;;8.15;4.38;;;;;;;;;;5065628;28;20051;-63
2022/06/16 03:45:22;;;;;;;6.18;4.45;;;;;;;;;;5070106;28;20020;-63
2022/06/16 03:47:51;;;;;;;8.95;4.47;;;;;;;;;;5070614;28;20016;-63
2022/06/16 03:50:18;;;;;;;7.50;4.05;;;;;;;;;;5058867;28;20139;-63
2022/06/16 03:52:47;;;;;;;6.88;4.75;;;;;;;;;;5062315;28;20526;-63
2022/06/16 03:55:16;;;;;;;7.22;4.20;;;;;;;;;;5058851;28;20025;-63
2022/06/16 03:57:43;;;;;;;9.93;4.05;;;;;;;;;;5050249;28;20398;-63
2022/06/16 04:00:13;;;;;;;6.93;4.20;;;;;;;;;;5050152;28;20028;-63
2022/06/16 04:02:45;;;;;;;;;;;;;;;;;;5063550;28;20402;-63
2022/06/16 04:05:14;;;;;;;7.95;4.40;;;;;;;;;;5049834;28;20296;-62
2022/06/16 04:07:47;;;;;;;6.32;3.88;;;;;;;;;;5052954;28;20024;-61
2022/06/16 04:10:20;;;;;;;5.75;4.05;;;;;;;;;;5065542;28;20041;-61
2022/06/16 04:12:46;;;;;;;7.97;4.57;;;;;;;;;;5075707;28;20113;-61
2022/06/16 04:15:17;;;;;;;9.35;4.32;;;;;;;;;;5062935;28;20029;-61
2022/06/16 04:17:43;;;;;;;6.28;4.18;;;;;;;;;;5084385;28;20499;-61
2022/06/16 04:20:18;;;;;;;5.53;3.53;;;;;;;;;;5069029;28;20031;-61
2022/06/16 04:22:52;;;;;;;9.13;4.75;;;;;;;;;;5066714;28;20072;-61
2022/06/16 04:25:22;;;;;;;6.05;3.85;;;;;;;;;;5051652;28;20400;-61
2022/06/16 04:27:49;;;;;;;6.53;4.43;;;;;;;;;;5060962;28;20055;-61
2022/06/16 04:30:16;;;;;;;9.60;4.78;;;;;;;;;;5073944;28;20074;-61
2022/06/16 04:32:44;;;;;;;7.45;4.07;;;;;;;;;;5065328;28;20025;-63
2022/06/16 04:35:11;;;;;;;8.88;4.70;;;;;;;;;;5070057;28;20027;-63
2022/06/16 04:37:48;;;;;;;8.20;3.65;;;;;;;;;;5063365;28;20439;-65
2022/06/16 04:40:15;;;;;;;7.50;3.90;;;;;;;;;;5061455;28;20492;-63
2022/06/16 04:42:42;;;;;;;8.35;4.47;;;;;;;;;;5058760;28;20055;-63
2022/06/16 04:45:11;;;;;;;4.63;4.10;;;;;;;;;;5051510;28;20025;-63
2022/06/16 04:47:38;;;;;;;7.43;3.97;;;;;;;;;;5053025;28;20099;-63
2022/06/16 04:50:06;;;;;;;9.63;4.28;;;;;;;;;;5056306;28;20029;-63
2022/06/16 04:52:32;;;;;;;8.02;4.35;;;;;;;;;;5058631;28;20376;-63
2022/06/16 04:54:59;;;;;;;7.78;4.40;;;;;;;;;;5058639;28;20029;-63
2022/06/16 04:57:58;;;;;;;7.80;3.67;;;;;;;;;;5061464;28;20040;-63
2022/06/16 05:00:52;;;;;;;;;;;;;;;;;;5066372;28;20048;-63
2022/06/16 05:03:47;;;;;;;9.30;4.65;;;;;;;;;;5064304;28;19955;-63
2022/06/16 05:06:36;;;;;;;5.85;4.20;;;;;;;;;;4989717;28;20403;-63
2022/06/16 05:09:13;;;;;;;8.73;3.97;;;;;;;;;;4983922;28;20665;-63
2022/06/16 05:11:44;;;;;;;6.90;4.50;;;;;;;;;;4986300;28;20083;-63
2022/06/16 05:14:33;;;;;;;10.68;4.80;;;;;;;;;;4974436;28;20038;-63
2022/06/16 05:17:13;;;;;;;10.95;4.97;;;;;;;;;;4979315;28;20084;-63
2022/06/16 05:19:45;;;;;;;9.60;4.93;;;;;;;;;;4990198;28;20088;-63
2022/06/16 05:22:30;;;;;;;7.45;4.72;;;;;;;;;;4990715;28;20049;-63
2022/06/16 05:25:15;;;;;;;8.40;4.65;;;;;;;;;;5009994;28;20541;-63
2022/06/16 05:28:16;;;;;;;11.93;5.78;;;;;;;;;;4909791;29;20044;-63
2022/06/16 05:31:21;;;;;;;17.15;7.25;;;;;;;;;;4912217;29;20060;-63
2022/06/16 05:34:16;;;;;;;15.38;7.05;;;;;;;;;;4916449;29;20043;-64
2022/06/16 05:37:17;;;;;;;20.90;8.38;;;;;;;;;;4884607;29;20405;-62
2022/06/16 05:40:09;;;;;;;13.88;8.90;;;;;;;;;;4902439;29;20504;-61
2022/06/16 05:42:54;;;;;;;19.83;9.60;;;;;;;;;;4893286;29;20139;-62
2022/06/16 05:45:40;;;;;;;20.02;8.63;;;;;;;;;;4896101;29;20463;-62
2022/06/16 05:48:19;;;;;;;13.65;8.35;;;;;;;;;;4896149;29;20072;-62
2022/06/16 05:50:47;;;;;;;14.70;8.45;;;;;;;;;;4896499;29;20089;-62
2022/06/16 05:53:13;;;;;;;15.10;8.93;;;;;;;;;;4893940;29;20356;-61
2022/06/16 05:55:43;;;;;;;19.90;9.52;;;;;;;;;;4895863;29;20535;-61
2022/06/16 05:58:10;;;;;;;16.52;9.25;;;;;;;;;;4894973;29;20083;-61
2022/06/16 06:00:45;;;;;;;21.75;10.13;;;;;;;;;;4895174;29;20040;-61
2022/06/16 06:03:14;;;;;;;20.40;9.60;;;;;;;;;;4963728;28;20053;-61
2022/06/16 06:05:41;;;;;;;21.45;9.30;;;;;;;;;;4973270;28;20054;-62
2022/06/16 06:16:25;;;;;;;16.30;9.38;;;;;;;;;;4981413;28;20075;-62
2022/06/16 06:18:55;;;;;;;21.95;10.23;;;;;;;;;;5072433;28;20029;-62
2022/06/16 06:22:11;;;;;;;18.40;9.20;;;;;;;;;;5072457;28;20025;-61
2022/06/16 06:24:10;;;;;;;20.65;9.63;;;;;;;;;;5073754;28;20052;-61
2022/06/16 06:26:37;;;;;;;17.45;8.82;;;;;;;;;;5070909;28;20469;-62
2022/06/16 06:29:03;;;;;;;16.17;9.25;;;;;;;;;;5052717;28;20409;-61
2022/06/16 06:31:29;;;;;;;14.57;8.55;;;;;;;;;;5052541;28;20021;-61
2022/06/16 06:33:55;;;;;;;20.17;8.82;;;;;;;;;;5054561;28;20504;-61
2022/06/16 06:36:22;;;;;;;13.98;8.13;;;;;;;;;;5058335;28;20048;-62
2022/06/16 06:38:48;;;;;;;48.42;10.63;;;;;;;;;;5052454;28;20040;-61
2022/06/16 06:41:15;;;;;;;17.02;8.55;;;;;;;;;;5054025;28;20120;-61
2022/06/16 06:43:43;;;;;;;18.30;8.80;;;;;;;;;;5055994;28;20036;-61
2022/06/16 06:46:10;;;;;;;18.67;9.05;;;;;;;;;;5060258;28;20123;-61
2022/06/16 06:48:36;;;;;;;14.07;8.23;;;;;;;;;;5053648;28;20489;-61
2022/06/16 06:51:02;;;;;;;20.10;8.82;;;;;;;;;;5053504;28;20013;-61
2022/06/16 06:53:28;;;;;;;16.83;8.00;;;;;;;;;;5055687;28;20059;-61
2022/06/16 06:55:55;;;;;;;17.15;8.07;;;;;;;;;;5073557;28;20031;-61
2022/06/16 06:58:22;;;;;;;16.30;8.40;;;;;;;;;;5073344;28;20049;-62
2022/06/16 07:00:51;;;;;;;17.10;7.88;;;;;;;;;;5073255;28;20043;-62
2022/06/16 07:03:17;;;;;;;14.23;7.13;;;;;;;;;;5070331;28;20396;-62
2022/06/16 07:05:44;;;;;;;18.55;8.25;;;;;;;;;;5066117;28;20487;-62
2022/06/16 07:08:10;;;;;;;13.05;6.93;;;;;;;;;;5053512;28;20029;-62
2022/06/16 07:10:36;;;;;;;16.30;7.35;;;;;;;;;;5062774;28;20028;-62
2022/06/16 07:13:02;;;;;;;13.55;7.70;;;;;;;;;;5071434;28;20077;-62
2022/06/16 07:15:28;;;;;;;15.10;7.22;;;;;;;;;;5072948;28;20537;-62
2022/06/16 07:17:56;;;;;;;13.85;8.07;;;;;;;;;;5073241;28;20481;-62
2022/06/16 07:20:22;;;;;;;16.63;8.18;;;;;;;;;;5072622;28;20094;-62
2022/06/16 07:22:48;;;;;;;22.20;8.45;;;;;;;;;;5071456;28;20028;-62
2022/06/16 07:25:14;;;;;;;19.67;7.47;;;;;;;;;;5052817;28;20029;-62
2022/06/16 07:27:41;;;;;;;17.33;7.88;;;;;;;;;;5052776;28;20033;-62
2022/06/16 07:30:14;;;;;;;14.98;7.07;;;;;;;;;;5053057;28;20029;-62
2022/06/16 07:32:40;;;;;;;12.40;6.35;;;;;;;;;;5052677;28;20427;-62
2022/06/16 07:35:07;;;;;;;9.73;3.60;;;;;;;;;;5057758;28;20503;-62
2022/06/16 07:37:34;;;;;;;8.07;4.57;;;;;;;;;;5072584;28;20036;-62
2022/06/16 07:40:00;;;;;;;11.63;3.53;;;;;;;;;;5067510;28;20016;-62
2022/06/16 07:42:27;;;;;;;8.70;2.85;;;;;;;;;;5052899;28;20067;-62
2022/06/16 07:44:53;;;;;;;6.90;2.70;;;;;;;;;;5052614;28;20442;-62
2022/06/16 07:47:20;;;;;;;10.05;2.70;;;;;;;;;;5052700;28;20492;-62
2022/06/16 07:49:49;;;;;;;5.85;2.78;;;;;;;;;;5051729;28;20077;-62
2022/06/16 07:52:15;;;;;;;5.82;2.83;;;;;;;;;;5052561;28;20032;-62
2022/06/16 07:54:43;;;;;;;7.97;2.85;;;;;;;;;;5052243;28;20466;-62
2022/06/16 07:57:10;;;;;;;8.68;2.75;;;;;;;;;;5052360;28;20107;-62
2022/06/16 07:59:36;;;;;;;7.05;2.95;;;;;;;;;;5052370;28;20041;-62
2022/06/16 08:02:02;;;;;;;6.30;2.45;;;;;;;;;;5051593;28;20107;-62
2022/06/16 08:04:28;;;;;;;9.00;2.65;;;;;;;;;;5064106;28;20110;-62
2022/06/16 08:07:00;;;;;;;7.45;2.33;;;;;;;;;;5072087;28;20033;-62
2022/06/16 08:09:27;;;;;;;5.47;2.30;;;;;;;;;;5072363;28;20032;-62
2022/06/16 08:12:06;;;;;;;4.57;2.75;;;;;;;;;;5071138;28;20021;-62
2022/06/16 08:14:36;;;;;;;5.53;1.95;;;;;;;;;;5072390;28;20032;-62
2022/06/16 08:17:02;;;;;;;7.75;2.40;;;;;;;;;;5071785;28;20044;-62
2022/06/16 08:19:28;;;;;;;5.88;2.78;;;;;;;;;;5072359;28;20024;-62
2022/06/16 08:21:54;;;;;;;7.30;1.88;;;;;;;;;;5056670;28;20462;-62
2022/06/16 08:24:20;;;;;;;4.15;2.58;;;;;;;;;;5072221;28;20399;-62
2022/06/16 08:26:47;;;;;;;7.70;2.60;;;;;;;;;;5071581;28;20048;-62
2022/06/16 08:29:14;;;;;;;3.47;1.90;;;;;;;;;;5072166;28;20031;-61
2022/06/16 08:31:41;;;;;;;8.00;1.92;;;;;;;;;;5069550;28;20115;-62
2022/06/16 08:34:07;;;;;;;7.25;2.13;;;;;;;;;;5061188;28;20021;-62
2022/06/16 08:36:33;;;;;;;3.55;1.73;;;;;;;;;;5051790;28;20029;-61
2022/06/16 08:38:59;;;;;;;4.82;1.90;;;;;;;;;;5051816;28;20025;-62
2022/06/16 08:41:31;;;;;;;16.70;2.30;;;;;;;;;;5051576;28;20036;-62
2022/06/16 08:44:03;;;;;;;3.25;2.05;;;;;;;;;;5051496;28;20112;-62
2022/06/16 08:46:33;;;;;;;5.43;2.05;;;;;;;;;;5051546;28;20105;-62
2022/06/16 08:49:19;;;;;;;5.03;1.98;;;;;;;;;;5051548;28;20568;-62
2022/06/16 08:51:57;;;;;;;5.20;1.95;;;;;;;;;;5051326;28;20049;-62
2022/06/16 08:54:42;;;;;;;4.75;1.63;;;;;;;;;;5051891;28;20040;-62
2022/06/16 08:57:08;;;;;;;7.60;1.85;;;;;;;;;;5051636;28;20095;-62
2022/06/16 08:59:41;;;;;;;8.25;1.83;;;;;;;;;;5051761;28;20037;-62
2022/06/16 09:02:26;;;;;;;6.30;2.10;;;;;;;;;;5067918;28;20044;-62
2022/06/16 09:04:56;;;;;;;8.30;2.47;;;;;;;;;;5066670;28;20059;-62
2022/06/16 09:07:51;;;;;;;6.50;1.90;;;;;;;;;;5071536;28;20039;-61
2022/06/16 09:10:30;;;;;;;8.38;2.03;;;;;;;;;;5029683;28;20044;-62
2022/06/16 09:13:12;;;;;;;3.92;2.08;;;;;;;;;;5022966;28;20109;-62
2022/06/16 09:15:51;;;;;;;3.80;1.42;;;;;;;;;;5018356;28;20509;-61
2022/06/16 09:18:29;;;;;;;4.65;1.75;;;;;;;;;;5009929;28;20034;-62
2022/06/16 09:21:04;;;;;;;5.82;1.60;;;;;;;;;;5009569;28;20259;-62
2022/06/16 09:23:54;;;;;;;5.82;1.90;;;;;;;;;;5009998;28;20042;-62
2022/06/16 09:26:24;;;;;;;5.60;1.75;;;;;;;;;;5020681;28;20041;-62
2022/06/16 09:28:54;;;;;;;6.60;2.70;;;;;;;;;;5029365;28;20483;-61
2022/06/16 09:31:32;;;;;;;4.63;2.67;;;;;;;;;;5029284;28;20463;-62
2022/06/16 09:34:03;;;;;;;7.45;1.98;;;;;;;;;;5029112;28;20029;-62
2022/06/16 09:36:32;;;;;;;7.35;2.28;;;;;;;;;;5024045;28;20428;-62
2022/06/16 09:39:11;;;;;;;5.43;1.70;;;;;;;;;;5028799;28;20166;-61
2022/06/16 09:44:50;;;;;;;2.40;1.42;;;;;;;;;;4935155;29;20059;-62
2022/06/16 09:47:20;;;;;;;6.97;1.67;;;;;;;;;;4961577;28;20438;-62
2022/06/16 09:49:55;;;;;;;5.40;2.00;;;;;;;;;;4973852;28;20039;-61
2022/06/16 09:52:27;;;;;;;4.20;1.50;;;;;;;;;;4974041;28;20491;-62
2022/06/16 09:55:00;;;;;;;2.67;1.40;;;;;;;;;;4973776;28;20045;-62
2022/06/16 09:57:29;;;;;;;5.60;1.50;;;;;;;;;;4992826;28;20080;-61
2022/06/16 10:00:16;;;;;;;3.05;1.55;;;;;;;;;;4992678;28;20512;-62
2022/06/16 10:02:48;;;;;;;3.10;1.70;;;;;;;;;;4993137;28;20086;-59
2022/06/16 10:05:19;;;;;;;4.82;1.70;;;;;;;;;;4990634;28;20034;-60
2022/06/16 10:07:48;;;;;;;8.43;1.63;;;;;;;;;;4993184;28;20410;-60
2022/06/16 10:10:43;;;;;;;4.28;1.70;;;;;;;;;;4993169;28;20062;-60
2022/06/16 10:13:29;;;;;;;6.53;2.13;;;;;;;;;;4984267;28;20112;-59
2022/06/16 10:16:00;;;;;;;4.60;1.60;;;;;;;;;;4990389;28;20109;-60
2022/06/16 10:18:27;;;;;;;2.78;1.30;;;;;;;;;;4992955;28;20034;-60
2022/06/16 10:20:53;;;;;;;4.50;1.20;;;;;;;;;;5009768;28;20481;-59
2022/06/16 10:23:26;;;;;;;8.65;1.50;;;;;;;;;;5055097;28;20369;-60
2022/06/16 10:25:55;;;;;;;4.45;1.48;;;;;;;;;;5055696;28;20086;-60
2022/06/16 10:28:24;;;;;;;4.90;1.20;;;;;;;;;;5059282;28;20025;-60
2022/06/16 10:30:50;;;;;;;6.38;1.50;;;;;;;;;;5066693;28;20488;-60
2022/06/16 10:33:25;;;;;;;5.10;1.65;;;;;;;;;;5075777;28;20036;-59
2022/06/16 10:35:53;;;;;;;5.30;1.30;;;;;;;;;;5069969;28;20024;-60
2022/06/16 10:38:29;;;;;;;4.38;2.17;;;;;;;;;;5068428;28;20479;-60
2022/06/16 10:40:55;;;;;;;4.90;1.75;;;;;;;;;;5074754;28;20028;-60
2022/06/16 10:43:22;;;;;;;4.55;1.48;;;;;;;;;;5062214;28;20039;-60
2022/06/16 10:45:56;;;;;;;3.72;1.25;;;;;;;;;;5063541;28;20123;-60
2022/06/16 10:48:30;;;;;;;2.78;1.50;;;;;;;;;;5062411;28;20032;-60
2022/06/16 10:51:11;;;;;;;9.05;2.20;;;;;;;;;;5068100;28;20029;-60
2022/06/16 10:53:39;;;;;;;4.10;1.25;;;;;;;;;;5053261;28;20025;-60
2022/06/16 10:56:10;;;;;;;1.48;0.90;;;;;;;;;;5050767;28;20033;-60
2022/06/16 10:58:44;;;;;;;1.83;0.90;;;;;;;;;;5054077;28;20057;-60
2022/06/16 11:01:22;;;;;;;2.47;0.82;;;;;;;;;;5051123;28;20086;-60
2022/06/16 11:03:50;;;;;;;1.63;1.00;;;;;;;;;;5056711;28;20113;-59
2022/06/16 11:06:18;;;;;;;9.65;1.10;;;;;;;;;;5059346;28;20032;-60
2022/06/16 11:08:49;;;;;;;3.13;0.88;;;;;;;;;;5051250;28;20025;-59
2022/06/16 11:11:41;;;;;;;3.20;1.02;;;;;;;;;;5051307;28;20454;-60
2022/06/16 11:14:17;;;;;;;3.45;0.93;;;;;;;;;;5056815;28;20024;-59
2022/06/16 11:16:49;;;;;;;3.38;1.10;;;;;;;;;;5051140;28;20017;-60
2022/06/16 11:19:18;;;;;;;4.38;1.10;;;;;;;;;;5053101;28;20029;-60
2022/06/16 11:21:46;;;;;;;2.83;1.02;;;;;;;;;;5051403;28;20503;-60
2022/06/16 11:24:22;;;;;;;4.28;0.90;;;;;;;;;;5051385;28;20412;-60
2022/06/16 11:26:52;;;;;;;3.25;0.88;;;;;;;;;;5067694;28;20040;-60
2022/06/16 11:29:24;;;;;;;4.25;1.02;;;;;;;;;;5067447;28;20376;-60
2022/06/16 11:32:00;;;;;;;3.05;1.00;;;;;;;;;;5051755;28;20029;-60
2022/06/16 11:34:28;;;;;;;3.40;0.50;;;;;;;;;;5056129;28;20051;-60
2022/06/16 11:36:54;;;;;;;3.10;0.93;;;;;;;;;;5058231;28;20032;-60
2022/06/16 11:39:23;;;;;;;2.90;0.65;;;;;;;;;;5058025;28;20024;-60
2022/06/16 11:41:53;;;;;;;4.72;0.85;;;;;;;;;;5074516;28;20028;-60
2022/06/16 11:44:25;;;;;;;4.90;0.93;;;;;;;;;;5057018;28;20024;-60
2022/06/16 11:47:10;;;;;;;4.03;1.05;;;;;;;;;;5072877;28;20456;-60
2022/06/16 11:49:39;;;;;;;3.78;1.00;;;;;;;;;;5073101;28;20086;-60
2022/06/16 11:52:24;;;;;;;2.05;0.60;;;;;;;;;;5071041;28;20369;-60
2022/06/16 11:54:53;;;;;;;2.22;0.93;;;;;;;;;;5052186;28;20033;-60
2022/06/16 11:57:41;;;;;;;1.90;0.85;;;;;;;;;;5052053;28;20040;-60
2022/06/16 12:00:33;;;;;;;3.92;0.90;;;;;;;;;;5052421;28;20106;-60
2022/06/16 12:03:08;;;;;;;2.47;0.80;;;;;;;;;;5047304;28;20040;-60
2022/06/16 12:05:47;;;;;;;1.05;0.77;;;;;;;;;;5056300;28;20033;-60
2022/06/16 12:08:22;;;;;;;2.08;0.73;;;;;;;;;;5064928;28;20033;-60
2022/06/16 12:10:48;;;;;;;3.95;0.70;;;;;;;;;;5051919;28;20393;-60
2022/06/16 12:13:18;;;;;;;3.28;0.65;;;;;;;;;;5052113;28;20051;-60
2022/06/16 12:16:07;;;;;;;2.13;0.60;;;;;;;;;;5056969;28;20079;-60
2022/06/16 12:18:42;;;;;;;3.42;0.57;;;;;;;;;;5052113;28;20021;-60
2022/06/16 12:21:26;;;;;;;1.52;0.60;;;;;;;;;;5052354;28;20036;-60
2022/06/16 12:24:04;;;;;;;0.68;0.50;;;;;;;;;;5051871;28;20370;-61
2022/06/16 12:26:33;;;;;;;2.63;0.70;;;;;;;;;;5062274;28;20024;-60
2022/06/16 12:28:59;;;;;;;1.75;0.82;;;;;;;;;;5071282;28;20063;-60
2022/06/16 12:31:43;;;;;;;1.23;0.55;;;;;;;;;;5071809;28;20032;-60
2022/06/16 12:34:18;;;;;;;1.75;0.55;;;;;;;;;;5072020;28;20025;-60
2022/06/16 12:36:47;;;;;;;1.60;0.60;;;;;;;;;;5057306;28;20047;-60
2022/06/16 12:39:21;;;;;;;2.33;0.68;;;;;;;;;;5051668;28;20032;-60
2022/06/16 12:41:49;;;;;;;3.47;0.50;;;;;;;;;;5052058;28;20107;-60
2022/06/16 12:44:36;;;;;;;1.20;0.50;;;;;;;;;;5053594;28;20036;-60
2022/06/16 12:47:05;;;;;;;2.92;0.82;;;;;;;;;;5071023;28;20033;-60
2022/06/16 12:49:33;;;;;;;3.25;1.10;;;;;;;;;;5057761;28;20032;-60
2022/06/16 12:52:01;;;;;;;1.95;0.98;;;;;;;;;;5059129;28;20035;-60
2022/06/16 12:54:31;;;;;;;2.03;0.75;;;;;;;;;;5071451;28;20108;-60
2022/06/16 12:57:03;;;;;;;2.28;1.15;;;;;;;;;;5053997;28;20037;-60
2022/06/16 12:59:33;;;;;;;5.03;1.03;;;;;;;;;;5053105;28;20074;-60
2022/06/16 13:02:01;;;;;;;3.97;0.70;;;;;;;;;;5064454;28;20029;-60
2022/06/16 13:04:31;;;;;;;2.67;1.30;;;;;;;;;;5071514;28;20021;-60
2022/06/16 13:06:59;;;;;;;4.07;1.10;;;;;;;;;;5056570;28;20392;-60
2022/06/16 13:09:25;;;;;;;2.95;0.88;;;;;;;;;;5051408;28;20035;-61
2022/06/16 13:11:58;;;;;;;3.22;1.00;;;;;;;;;;5051795;28;20469;-61
2022/06/16 13:14:41;;;;;;;3.50;0.80;;;;;;;;;;5051499;28;20112;-60
2022/06/16 13:17:08;;;;;;;2.30;0.80;;;;;;;;;;5067867;28;20037;-60
2022/06/16 13:19:49;;;;;;;5.18;1.05;;;;;;;;;;5075363;28;20028;-60
2022/06/16 13:22:23;;;;;;;2.00;0.88;;;;;;;;;;5060652;28;20036;-61
2022/06/16 13:24:54;;;;;;;2.50;0.80;;;;;;;;;;5055540;28;20048;-61
2022/06/16 13:27:38;;;;;;;1.55;0.77;;;;;;;;;;5055225;28;20496;-61
2022/06/16 13:30:05;;;;;;;2.58;1.08;;;;;;;;;;5055266;28;20037;-60
2022/06/16 13:32:39;;;;;;;1.05;0.90;;;;;;;;;;5055850;28;20027;-61
2022/06/16 13:35:26;;;;;;;4.30;0.90;;;;;;;;;;5055313;28;20048;-60
2022/06/16 13:38:04;;;;;;;4.05;0.90;;;;;;;;;;5054747;28;20116;-61
2022/06/16 13:40:32;;;;;;;3.38;0.90;;;;;;;;;;5054833;28;20033;-61
2022/06/16 13:43:15;;;;;;;2.05;0.73;;;;;;;;;;5073021;28;20020;-60
2022/06/16 13:45:41;;;;;;;;;;;;;;;;;;5074984;28;20460;-61
2022/06/16 13:48:14;;;;;;;1.23;0.95;;;;;;;;;;5075013;28;19904;-60
2022/06/16 13:50:46;;;;;;;3.80;1.17;;;;;;;;;;5073543;28;20040;-61
2022/06/16 13:53:14;;;;;;;6.43;1.30;;;;;;;;;;5074839;28;20025;-61
2022/06/16 13:55:44;;;;;;;2.20;1.15;;;;;;;;;;5074584;28;20133;-60
2022/06/16 13:58:17;;;;;;;2.13;1.00;;;;;;;;;;5074660;28;20106;-60
2022/06/16 14:00:43;;;;;;;1.05;0.88;;;;;;;;;;5073096;28;20033;-61
2022/06/16 14:03:18;;;;;;;2.88;1.00;;;;;;;;;;5054758;28;20143;-60
2022/06/16 14:05:50;;;;;;;2.65;1.25;;;;;;;;;;5053751;28;20032;-60
2022/06/16 14:08:18;;;;;;;3.80;1.02;;;;;;;;;;5057783;28;20016;-61
2022/06/16 14:11:13;;;;;;;4.32;0.90;;;;;;;;;;5074305;28;20030;-61
2022/06/16 14:13:40;;;;;;;4.05;1.20;;;;;;;;;;5074338;28;20119;-61
2022/06/16 14:16:06;;;;;;;2.97;0.70;;;;;;;;;;5074542;28;20392;-61
2022/06/16 14:18:36;;;;;;;4.22;1.40;;;;;;;;;;5072805;28;20032;-61
2022/06/16 14:21:05;;;;;;;6.25;1.08;;;;;;;;;;5074151;28;20481;-61
2022/06/16 14:23:34;;;;;;;2.17;1.38;;;;;;;;;;5074157;28;20501;-60
2022/06/16 14:26:03;;;;;;;4.78;1.23;;;;;;;;;;5074195;28;20016;-61
2022/06/16 14:28:38;;;;;;;1.92;1.17;;;;;;;;;;5064608;28;20021;-60
2022/06/16 14:31:08;;;;;;;6.40;0.85;;;;;;;;;;5065123;28;20107;-60
2022/06/16 14:34:04;;;;;;;3.78;0.98;;;;;;;;;;5073288;28;20051;-60
2022/06/16 14:36:49;;;;;;;4.70;1.30;;;;;;;;;;5017747;28;20124;-60
2022/06/16 14:39:21;;;;;;;2.72;1.17;;;;;;;;;;5031337;28;20034;-61
2022/06/16 14:41:52;;;;;;;3.65;1.13;;;;;;;;;;5025980;28;20557;-60
2022/06/16 14:44:22;;;;;;;4.00;1.27;;;;;;;;;;5031122;28;20382;-61
2022/06/16 14:46:57;;;;;;;3.00;1.33;;;;;;;;;;5025194;28;20050;-60
2022/06/16 14:49:38;;;;;;;4.40;1.20;;;;;;;;;;5030969;28;20064;-60
2022/06/16 14:52:05;;;;;;;5.30;1.10;;;;;;;;;;5030965;28;20034;-61
2022/06/16 14:54:34;;;;;;;5.20;1.50;;;;;;;;;;5014919;28;20161;-60
2022/06/16 14:57:01;;;;;;;5.63;1.63;;;;;;;;;;5027445;28;20049;-60
2022/06/16 14:59:49;;;;;;;5.60;1.35;;;;;;;;;;5018830;28;20508;-60
2022/06/16 15:02:15;;;;;;;3.95;1.40;;;;;;;;;;5017041;28;20064;-60
2022/06/16 15:04:41;;;;;;;7.43;1.55;;;;;;;;;;5029755;28;20041;-60
2022/06/16 15:07:08;;;;;;;6.35;1.70;;;;;;;;;;5022508;28;20029;-60
2022/06/16 15:09:39;;;;;;;2.70;1.33;;;;;;;;;;5021272;28;20035;-60
2022/06/16 15:12:07;;;;;;;8.87;1.33;;;;;;;;;;5027887;28;20068;-60
2022/06/16 15:14:34;;;;;;;5.70;1.42;;;;;;;;;;5062139;28;20020;-60
2022/06/16 15:19:48;;;;;;;7.80;1.48;;;;;;;;;;5058498;28;20039;-60
2022/06/16 15:22:15;;;;;;;8.30;1.45;;;;;;;;;;5061722;28;20074;-60
2022/06/16 15:24:53;;;;;;;3.78;1.17;;;;;;;;;;5059176;28;20079;-60
2022/06/16 15:27:29;;;;;;;6.85;1.90;;;;;;;;;;5057708;28;20119;-60
2022/06/16 15:29:56;;;;;;;3.63;1.55;;;;;;;;;;5058708;28;20083;-60